sensor_id;sensor_type;location;lat;lon;timestamp;temperature;humidity
5705;DHT22;2877;48.238;11.160;2023-05-19T00:01:27;9.00;99.90
5705;DHT22;2877;48.238;11.160;2023-05-19T00:03:55;9.00;99.90
5705;DHT22;2877;48.238;11.160;2023-05-19T00:06:29;9.00;99.90
5705;DHT22;2877;48.238;11.160;2023-05-19T00:09:00;9.00;99.90
5705;DHT22;2877;48.238;11.160;2023-05-19T00:11:27;9.00;99.90
5705;DHT22;2877;48.238;11.160;2023-05-19T00:13:56;9.00;99.90
5705;DHT22;2877;48.238;11.160;2023-05-19T00:16:23;9.00;99.90
5705;DHT22;2877;48.238;11.160;2023-05-19T00:18:49;9.00;99.90
5705;DHT22;2877;48.238;11.160;2023-05-19T00:21:16;9.00;99.90
5705;DHT22;2877;48.238;11.160;2023-05-19T00:23:42;9.00;99.90
5705;DHT22;2877;48.238;11.160;2023-05-19T00:26:08;9.00;99.90
5705;DHT22;2877;48.238;11.160;2023-05-19T00:28:34;9.00;99.90
5705;DHT22;2877;48.238;11.160;2023-05-19T00:31:00;9.00;99.90
5705;DHT22;2877;48.238;11.160;2023-05-19T00:33:26;9.00;99.90
5705;DHT22;2877;48.238;11.160;2023-05-19T00:35:52;9.00;99.90
5705;DHT22;2877;48.238;11.160;2023-05-19T00:38:17;8.90;99.90
5705;DHT22;2877;48.238;11.160;2023-05-19T00:40:43;9.00;99.90
5705;DHT22;2877;48.238;11.160;2023-05-19T00:43:09;9.00;99.90
5705;DHT22;2877;48.238;11.160;2023-05-19T00:45:35;8.90;99.90
5705;DHT22;2877;48.238;11.160;2023-05-19T00:48:00;8.90;99.90
5705;DHT22;2877;48.238;11.160;2023-05-19T00:50:26;8.90;99.90
5705;DHT22;2877;48.238;11.160;2023-05-19T00:52:53;8.90;99.90
5705;DHT22;2877;48.238;11.160;2023-05-19T00:55:22;8.90;99.90
5705;DHT22;2877;48.238;11.160;2023-05-19T00:57:51;8.90;99.90
5705;DHT22;2877;48.238;11.160;2023-05-19T01:00:17;8.80;99.90
5705;DHT22;2877;48.238;11.160;2023-05-19T01:02:43;8.80;99.90
5705;DHT22;2877;48.238;11.160;2023-05-19T01:05:09;8.80;99.90
5705;DHT22;2877;48.238;11.160;2023-05-19T01:07:35;8.80;99.90
5705;DHT22;2877;48.238;11.160;2023-05-19T01:10:01;8.80;99.90
5705;DHT22;2877;48.238;11.160;2023-05-19T01:12:27;8.80;99.90
5705;DHT22;2877;48.238;11.160;2023-05-19T01:14:54;8.70;99.90
5705;DHT22;2877;48.238;11.160;2023-05-19T01:17:28;8.70;99.90
5705;DHT22;2877;48.238;11.160;2023-05-19T01:20:19;8.70;99.90
5705;DHT22;2877;48.238;11.160;2023-05-19T01:31:09;8.70;99.90
5705;DHT22;2877;48.238;11.160;2023-05-19T01:33:36;8.60;99.90
5705;DHT22;2877;48.238;11.160;2023-05-19T01:36:04;8.60;99.90
5705;DHT22;2877;48.238;11.160;2023-05-19T01:38:32;8.60;99.90
5705;DHT22;2877;48.238;11.160;2023-05-19T01:40:59;8.50;99.90
5705;DHT22;2877;48.238;11.160;2023-05-19T01:43:26;8.50;99.90
5705;DHT22;2877;48.238;11.160;2023-05-19T01:45:52;8.50;99.90
5705;DHT22;2877;48.238;11.160;2023-05-19T01:48:19;8.50;99.90
5705;DHT22;2877;48.238;11.160;2023-05-19T01:50:45;8.50;99.90
5705;DHT22;2877;48.238;11.160;2023-05-19T01:53:10;8.50;99.90
5705;DHT22;2877;48.238;11.160;2023-05-19T01:55:42;8.50;99.90
5705;DHT22;2877;48.238;11.160;2023-05-19T01:58:44;8.50;99.90
5705;DHT22;2877;48.238;11.160;2023-05-19T02:01:31;8.50;99.90
5705;DHT22;2877;48.238;11.160;2023-05-19T02:09:33;8.50;99.90
5705;DHT22;2877;48.238;11.160;2023-05-19T02:12:35;8.50;99.90
5705;DHT22;2877;48.238;11.160;2023-05-19T02:15:20;8.50;99.90
5705;DHT22;2877;48.238;11.160;2023-05-19T02:17:47;8.50;99.90
5705;DHT22;2877;48.238;11.160;2023-05-19T02:20:15;8.50;99.90
5705;DHT22;2877;48.238;11.160;2023-05-19T02:22:41;8.50;99.90
5705;DHT22;2877;48.238;11.160;2023-05-19T02:25:07;8.50;99.90
5705;DHT22;2877;48.238;11.160;2023-05-19T02:27:34;8.50;99.90
5705;DHT22;2877;48.238;11.160;2023-05-19T02:30:00;8.50;99.90
5705;DHT22;2877;48.238;11.160;2023-05-19T02:32:26;8.50;99.90
5705;DHT22;2877;48.238;11.160;2023-05-19T02:34:51;8.50;99.90
5705;DHT22;2877;48.238;11.160;2023-05-19T02:37:17;8.50;99.90
5705;DHT22;2877;48.238;11.160;2023-05-19T02:39:43;8.50;99.90
5705;DHT22;2877;48.238;11.160;2023-05-19T02:42:09;8.50;99.90
5705;DHT22;2877;48.238;11.160;2023-05-19T02:44:36;8.50;99.90
5705;DHT22;2877;48.238;11.160;2023-05-19T02:47:01;8.50;99.90
5705;DHT22;2877;48.238;11.160;2023-05-19T02:49:27;8.50;99.90
5705;DHT22;2877;48.238;11.160;2023-05-19T02:51:55;8.50;99.90
5705;DHT22;2877;48.238;11.160;2023-05-19T02:54:21;8.50;99.90
5705;DHT22;2877;48.238;11.160;2023-05-19T02:56:46;8.50;99.90
5705;DHT22;2877;48.238;11.160;2023-05-19T02:59:12;8.50;99.90
5705;DHT22;2877;48.238;11.160;2023-05-19T03:01:38;8.50;99.90
5705;DHT22;2877;48.238;11.160;2023-05-19T03:04:04;8.60;99.90
5705;DHT22;2877;48.238;11.160;2023-05-19T03:06:30;8.60;99.90
5705;DHT22;2877;48.238;11.160;2023-05-19T03:08:57;8.60;99.90
5705;DHT22;2877;48.238;11.160;2023-05-19T03:11:22;8.60;99.90
5705;DHT22;2877;48.238;11.160;2023-05-19T03:13:48;8.60;99.90
5705;DHT22;2877;48.238;11.160;2023-05-19T03:16:13;8.60;99.90
5705;DHT22;2877;48.238;11.160;2023-05-19T03:18:40;8.60;99.90
5705;DHT22;2877;48.238;11.160;2023-05-19T03:21:06;8.60;99.90
5705;DHT22;2877;48.238;11.160;2023-05-19T03:23:31;8.60;99.90
5705;DHT22;2877;48.238;11.160;2023-05-19T03:25:57;8.60;99.90
5705;DHT22;2877;48.238;11.160;2023-05-19T03:28:22;8.60;99.90
5705;DHT22;2877;48.238;11.160;2023-05-19T03:30:48;8.60;99.90
5705;DHT22;2877;48.238;11.160;2023-05-19T03:33:17;8.60;99.90
5705;DHT22;2877;48.238;11.160;2023-05-19T03:35:42;8.50;99.90
5705;DHT22;2877;48.238;11.160;2023-05-19T03:38:09;8.60;99.90
5705;DHT22;2877;48.238;11.160;2023-05-19T03:40:35;8.60;99.90
5705;DHT22;2877;48.238;11.160;2023-05-19T03:43:01;8.60;99.90
5705;DHT22;2877;48.238;11.160;2023-05-19T03:45:26;8.60;99.90
5705;DHT22;2877;48.238;11.160;2023-05-19T03:47:52;8.60;99.90
5705;DHT22;2877;48.238;11.160;2023-05-19T03:50:18;8.60;99.90
5705;DHT22;2877;48.238;11.160;2023-05-19T03:52:43;8.70;99.90
5705;DHT22;2877;48.238;11.160;2023-05-19T03:55:11;8.70;99.90
5705;DHT22;2877;48.238;11.160;2023-05-19T03:57:36;8.70;99.90
5705;DHT22;2877;48.238;11.160;2023-05-19T04:00:03;8.70;99.90
5705;DHT22;2877;48.238;11.160;2023-05-19T04:02:30;8.70;99.90
5705;DHT22;2877;48.238;11.160;2023-05-19T04:04:55;8.70;99.90
5705;DHT22;2877;48.238;11.160;2023-05-19T04:07:21;8.70;99.90
5705;DHT22;2877;48.238;11.160;2023-05-19T04:09:48;8.80;99.90
5705;DHT22;2877;48.238;11.160;2023-05-19T04:12:13;8.80;99.90
5705;DHT22;2877;48.238;11.160;2023-05-19T04:14:39;8.80;99.90
5705;DHT22;2877;48.238;11.160;2023-05-19T04:17:04;8.80;99.90
5705;DHT22;2877;48.238;11.160;2023-05-19T04:19:30;8.90;99.90
5705;DHT22;2877;48.238;11.160;2023-05-19T04:21:55;8.80;99.90
5705;DHT22;2877;48.238;11.160;2023-05-19T04:24:21;8.90;99.90
5705;DHT22;2877;48.238;11.160;2023-05-19T04:26:47;8.90;99.90
5705;DHT22;2877;48.238;11.160;2023-05-19T04:29:12;9.00;99.90
5705;DHT22;2877;48.238;11.160;2023-05-19T04:31:42;9.00;99.90
5705;DHT22;2877;48.238;11.160;2023-05-19T04:34:08;9.00;99.90
5705;DHT22;2877;48.238;11.160;2023-05-19T04:36:34;9.00;99.90
5705;DHT22;2877;48.238;11.160;2023-05-19T04:39:01;9.00;99.90
5705;DHT22;2877;48.238;11.160;2023-05-19T04:41:28;9.00;99.90
5705;DHT22;2877;48.238;11.160;2023-05-19T04:43:53;9.00;99.90
5705;DHT22;2877;48.238;11.160;2023-05-19T04:46:21;9.00;99.90
5705;DHT22;2877;48.238;11.160;2023-05-19T04:48:49;9.10;99.90
5705;DHT22;2877;48.238;11.160;2023-05-19T04:51:15;9.20;99.90
5705;DHT22;2877;48.238;11.160;2023-05-19T04:53:41;9.20;99.90
5705;DHT22;2877;48.238;11.160;2023-05-19T04:56:08;9.20;99.90
5705;DHT22;2877;48.238;11.160;2023-05-19T04:58:34;9.20;99.90
5705;DHT22;2877;48.238;11.160;2023-05-19T05:00:59;9.20;99.90
5705;DHT22;2877;48.238;11.160;2023-05-19T05:03:25;9.30;99.90
5705;DHT22;2877;48.238;11.160;2023-05-19T05:05:51;9.30;99.90
5705;DHT22;2877;48.238;11.160;2023-05-19T05:08:17;9.40;99.90
5705;DHT22;2877;48.238;11.160;2023-05-19T05:10:51;9.40;99.90
5705;DHT22;2877;48.238;11.160;2023-05-19T05:13:20;9.50;99.90
5705;DHT22;2877;48.238;11.160;2023-05-19T05:15:46;9.60;99.90
5705;DHT22;2877;48.238;11.160;2023-05-19T05:18:13;9.70;99.90
5705;DHT22;2877;48.238;11.160;2023-05-19T05:20:43;9.70;99.90
5705;DHT22;2877;48.238;11.160;2023-05-19T05:23:09;9.70;99.90
5705;DHT22;2877;48.238;11.160;2023-05-19T05:25:39;9.80;99.90
5705;DHT22;2877;48.238;11.160;2023-05-19T05:28:05;9.80;99.90
5705;DHT22;2877;48.238;11.160;2023-05-19T05:30:32;9.90;99.90
5705;DHT22;2877;48.238;11.160;2023-05-19T05:32:57;10.00;99.90
5705;DHT22;2877;48.238;11.160;2023-05-19T05:35:23;10.10;99.90
5705;DHT22;2877;48.238;11.160;2023-05-19T05:37:49;10.10;99.90
5705;DHT22;2877;48.238;11.160;2023-05-19T05:40:14;10.10;99.90
5705;DHT22;2877;48.238;11.160;2023-05-19T05:42:41;10.10;99.90
5705;DHT22;2877;48.238;11.160;2023-05-19T05:45:07;10.30;99.90
5705;DHT22;2877;48.238;11.160;2023-05-19T05:47:33;10.50;99.90
5705;DHT22;2877;48.238;11.160;2023-05-19T05:49:59;10.60;99.90
5705;DHT22;2877;48.238;11.160;2023-05-19T05:52:29;10.70;99.90
5705;DHT22;2877;48.238;11.160;2023-05-19T05:54:55;10.70;99.90
5705;DHT22;2877;48.238;11.160;2023-05-19T05:57:21;10.90;99.90
5705;DHT22;2877;48.238;11.160;2023-05-19T05:59:47;10.90;99.90
5705;DHT22;2877;48.238;11.160;2023-05-19T06:02:12;11.10;99.90
5705;DHT22;2877;48.238;11.160;2023-05-19T06:04:38;11.10;99.90
5705;DHT22;2877;48.238;11.160;2023-05-19T06:07:03;11.10;99.90
5705;DHT22;2877;48.238;11.160;2023-05-19T06:09:29;11.30;99.90
5705;DHT22;2877;48.238;11.160;2023-05-19T06:11:57;11.50;99.90
5705;DHT22;2877;48.238;11.160;2023-05-19T06:14:22;11.40;99.90
5705;DHT22;2877;48.238;11.160;2023-05-19T06:16:48;11.40;99.90
5705;DHT22;2877;48.238;11.160;2023-05-19T06:19:13;11.60;99.90
5705;DHT22;2877;48.238;11.160;2023-05-19T06:21:39;11.80;99.90
5705;DHT22;2877;48.238;11.160;2023-05-19T06:24:07;11.90;99.90
5705;DHT22;2877;48.238;11.160;2023-05-19T06:26:32;12.10;99.90
5705;DHT22;2877;48.238;11.160;2023-05-19T06:28:58;12.10;99.90
5705;DHT22;2877;48.238;11.160;2023-05-19T06:31:23;12.20;99.90
5705;DHT22;2877;48.238;11.160;2023-05-19T06:33:50;12.30;99.90
5705;DHT22;2877;48.238;11.160;2023-05-19T06:36:16;12.40;99.90
5705;DHT22;2877;48.238;11.160;2023-05-19T06:38:41;12.40;99.90
5705;DHT22;2877;48.238;11.160;2023-05-19T06:41:07;12.50;99.90
5705;DHT22;2877;48.238;11.160;2023-05-19T06:43:32;12.50;99.90
5705;DHT22;2877;48.238;11.160;2023-05-19T06:45:58;12.50;99.90
5705;DHT22;2877;48.238;11.160;2023-05-19T06:48:23;12.90;99.90
5705;DHT22;2877;48.238;11.160;2023-05-19T06:50:49;13.20;99.90
5705;DHT22;2877;48.238;11.160;2023-05-19T06:53:16;13.50;99.90
5705;DHT22;2877;48.238;11.160;2023-05-19T06:55:41;13.40;99.90
5705;DHT22;2877;48.238;11.160;2023-05-19T06:58:07;13.50;99.90
5705;DHT22;2877;48.238;11.160;2023-05-19T07:00:32;13.50;99.90
5705;DHT22;2877;48.238;11.160;2023-05-19T07:02:58;13.30;99.90
5705;DHT22;2877;48.238;11.160;2023-05-19T07:05:23;13.20;99.90
5705;DHT22;2877;48.238;11.160;2023-05-19T07:07:49;13.50;99.90
5705;DHT22;2877;48.238;11.160;2023-05-19T07:10:14;13.70;99.90
5705;DHT22;2877;48.238;11.160;2023-05-19T07:12:40;13.80;99.90
5705;DHT22;2877;48.238;11.160;2023-05-19T07:15:06;13.90;99.90
5705;DHT22;2877;48.238;11.160;2023-05-19T07:17:31;13.80;99.90
5705;DHT22;2877;48.238;11.160;2023-05-19T07:19:57;14.00;99.90
5705;DHT22;2877;48.238;11.160;2023-05-19T07:22:22;14.30;99.90
5705;DHT22;2877;48.238;11.160;2023-05-19T07:24:48;14.60;99.90
5705;DHT22;2877;48.238;11.160;2023-05-19T07:27:14;14.40;99.90
5705;DHT22;2877;48.238;11.160;2023-05-19T07:29:40;14.50;99.90
5705;DHT22;2877;48.238;11.160;2023-05-19T07:32:05;14.60;99.90
5705;DHT22;2877;48.238;11.160;2023-05-19T07:34:31;14.50;99.90
5705;DHT22;2877;48.238;11.160;2023-05-19T07:36:56;14.60;99.90
5705;DHT22;2877;48.238;11.160;2023-05-19T07:39:22;14.80;99.90
5705;DHT22;2877;48.238;11.160;2023-05-19T07:41:50;15.00;99.90
5705;DHT22;2877;48.238;11.160;2023-05-19T07:44:20;15.10;99.90
5705;DHT22;2877;48.238;11.160;2023-05-19T07:46:45;15.10;99.90
5705;DHT22;2877;48.238;11.160;2023-05-19T07:49:11;14.90;99.90
5705;DHT22;2877;48.238;11.160;2023-05-19T07:51:36;15.00;99.90
5705;DHT22;2877;48.238;11.160;2023-05-19T07:54:02;15.20;99.90
5705;DHT22;2877;48.238;11.160;2023-05-19T07:56:27;15.40;99.90
5705;DHT22;2877;48.238;11.160;2023-05-19T07:58:53;15.30;99.90
5705;DHT22;2877;48.238;11.160;2023-05-19T08:01:19;15.30;99.90
5705;DHT22;2877;48.238;11.160;2023-05-19T08:03:44;15.20;99.90
5705;DHT22;2877;48.238;11.160;2023-05-19T08:06:10;15.20;99.90
5705;DHT22;2877;48.238;11.160;2023-05-19T08:08:35;15.20;99.90
5705;DHT22;2877;48.238;11.160;2023-05-19T08:11:02;15.30;99.90
5705;DHT22;2877;48.238;11.160;2023-05-19T08:13:28;15.20;99.90
5705;DHT22;2877;48.238;11.160;2023-05-19T08:15:54;14.90;99.90
5705;DHT22;2877;48.238;11.160;2023-05-19T08:18:27;14.70;99.90
5705;DHT22;2877;48.238;11.160;2023-05-19T08:20:52;14.50;99.90
5705;DHT22;2877;48.238;11.160;2023-05-19T08:23:18;14.50;99.90
5705;DHT22;2877;48.238;11.160;2023-05-19T08:25:44;14.30;99.90
5705;DHT22;2877;48.238;11.160;2023-05-19T08:28:09;14.10;99.90
5705;DHT22;2877;48.238;11.160;2023-05-19T08:30:35;13.80;99.90
5705;DHT22;2877;48.238;11.160;2023-05-19T08:33:01;13.70;99.90
5705;DHT22;2877;48.238;11.160;2023-05-19T08:35:27;13.60;99.90
5705;DHT22;2877;48.238;11.160;2023-05-19T08:37:52;13.70;99.90
5705;DHT22;2877;48.238;11.160;2023-05-19T08:40:19;13.70;99.90
5705;DHT22;2877;48.238;11.160;2023-05-19T08:42:45;13.90;99.90
5705;DHT22;2877;48.238;11.160;2023-05-19T08:45:11;14.10;99.90
5705;DHT22;2877;48.238;11.160;2023-05-19T08:47:38;14.10;99.90
5705;DHT22;2877;48.238;11.160;2023-05-19T08:50:06;14.10;99.90
5705;DHT22;2877;48.238;11.160;2023-05-19T08:52:56;14.20;99.90
5705;DHT22;2877;48.238;11.160;2023-05-19T08:58:29;14.30;99.90
5705;DHT22;2877;48.238;11.160;2023-05-19T09:00:55;14.80;99.90
5705;DHT22;2877;48.238;11.160;2023-05-19T09:03:22;14.90;99.90
5705;DHT22;2877;48.238;11.160;2023-05-19T09:05:50;14.90;99.90
5705;DHT22;2877;48.238;11.160;2023-05-19T09:08:16;15.00;99.90
5705;DHT22;2877;48.238;11.160;2023-05-19T09:10:42;14.80;99.90
5705;DHT22;2877;48.238;11.160;2023-05-19T09:13:08;14.70;99.90
5705;DHT22;2877;48.238;11.160;2023-05-19T09:15:34;14.80;99.90
5705;DHT22;2877;48.238;11.160;2023-05-19T09:18:11;14.60;99.90
5705;DHT22;2877;48.238;11.160;2023-05-19T09:20:41;14.70;99.90
5705;DHT22;2877;48.238;11.160;2023-05-19T09:23:10;14.90;99.90
5705;DHT22;2877;48.238;11.160;2023-05-19T09:25:49;15.00;99.90
5705;DHT22;2877;48.238;11.160;2023-05-19T09:28:22;15.30;99.90
5705;DHT22;2877;48.238;11.160;2023-05-19T09:30:48;15.30;99.90
5705;DHT22;2877;48.238;11.160;2023-05-19T09:33:18;15.30;99.90
5705;DHT22;2877;48.238;11.160;2023-05-19T09:35:47;15.30;99.90
5705;DHT22;2877;48.238;11.160;2023-05-19T09:38:17;15.30;99.90
5705;DHT22;2877;48.238;11.160;2023-05-19T09:40:43;15.10;99.90
5705;DHT22;2877;48.238;11.160;2023-05-19T09:43:09;14.80;99.90
5705;DHT22;2877;48.238;11.160;2023-05-19T09:45:35;14.80;99.90
5705;DHT22;2877;48.238;11.160;2023-05-19T09:48:03;14.70;99.90
5705;DHT22;2877;48.238;11.160;2023-05-19T09:50:28;14.80;99.90
5705;DHT22;2877;48.238;11.160;2023-05-19T09:52:55;14.70;99.90
5705;DHT22;2877;48.238;11.160;2023-05-19T09:55:25;14.40;99.90
5705;DHT22;2877;48.238;11.160;2023-05-19T09:57:54;14.00;99.90
5705;DHT22;2877;48.238;11.160;2023-05-19T10:00:21;13.80;99.90
5705;DHT22;2877;48.238;11.160;2023-05-19T10:02:48;13.90;99.90
5705;DHT22;2877;48.238;11.160;2023-05-19T10:05:17;14.00;99.90
5705;DHT22;2877;48.238;11.160;2023-05-19T10:07:49;14.40;99.90
5705;DHT22;2877;48.238;11.160;2023-05-19T10:10:15;14.60;99.90
5705;DHT22;2877;48.238;11.160;2023-05-19T10:12:42;14.60;99.90
5705;DHT22;2877;48.238;11.160;2023-05-19T10:15:13;14.50;99.90
5705;DHT22;2877;48.238;11.160;2023-05-19T10:17:41;14.50;99.90
5705;DHT22;2877;48.238;11.160;2023-05-19T10:22:40;14.10;99.90
5705;DHT22;2877;48.238;11.160;2023-05-19T10:25:07;14.20;99.90
5705;DHT22;2877;48.238;11.160;2023-05-19T10:27:35;14.10;99.90
5705;DHT22;2877;48.238;11.160;2023-05-19T10:30:07;13.90;99.90
5705;DHT22;2877;48.238;11.160;2023-05-19T10:32:36;13.80;99.90
5705;DHT22;2877;48.238;11.160;2023-05-19T10:41:26;13.70;99.90
5705;DHT22;2877;48.238;11.160;2023-05-19T10:44:30;13.90;99.90
5705;DHT22;2877;48.238;11.160;2023-05-19T10:46:59;14.10;99.90
5705;DHT22;2877;48.238;11.160;2023-05-19T10:49:24;14.20;99.90
5705;DHT22;2877;48.238;11.160;2023-05-19T10:51:56;14.40;99.90
5705;DHT22;2877;48.238;11.160;2023-05-19T10:54:42;14.40;99.90
5705;DHT22;2877;48.238;11.160;2023-05-19T10:57:15;14.40;99.90
5705;DHT22;2877;48.238;11.160;2023-05-19T10:59:41;14.10;99.90
5705;DHT22;2877;48.238;11.160;2023-05-19T11:02:08;14.00;99.90
5705;DHT22;2877;48.238;11.160;2023-05-19T11:04:46;14.00;99.90
5705;DHT22;2877;48.238;11.160;2023-05-19T11:07:17;14.00;99.90
5705;DHT22;2877;48.238;11.160;2023-05-19T11:09:51;13.90;99.90
5705;DHT22;2877;48.238;11.160;2023-05-19T11:12:22;14.00;99.90
5705;DHT22;2877;48.238;11.160;2023-05-19T11:14:53;13.90;99.90
5705;DHT22;2877;48.238;11.160;2023-05-19T11:17:19;13.90;99.90
5705;DHT22;2877;48.238;11.160;2023-05-19T11:19:56;13.80;99.90
5705;DHT22;2877;48.238;11.160;2023-05-19T11:22:26;13.60;99.90
5705;DHT22;2877;48.238;11.160;2023-05-19T11:24:55;13.50;99.90
5705;DHT22;2877;48.238;11.160;2023-05-19T11:27:32;13.50;99.90
5705;DHT22;2877;48.238;11.160;2023-05-19T11:30:08;13.50;99.90
5705;DHT22;2877;48.238;11.160;2023-05-19T11:32:38;13.60;99.90
5705;DHT22;2877;48.238;11.160;2023-05-19T11:35:07;13.80;99.90
5705;DHT22;2877;48.238;11.160;2023-05-19T11:37:34;14.20;99.90
5705;DHT22;2877;48.238;11.160;2023-05-19T11:40:03;14.30;99.90
5705;DHT22;2877;48.238;11.160;2023-05-19T11:42:34;14.50;99.90
5705;DHT22;2877;48.238;11.160;2023-05-19T11:45:00;14.60;99.90
5705;DHT22;2877;48.238;11.160;2023-05-19T11:47:26;14.50;99.90
5705;DHT22;2877;48.238;11.160;2023-05-19T11:49:53;14.60;99.90
5705;DHT22;2877;48.238;11.160;2023-05-19T11:52:22;14.50;99.90
5705;DHT22;2877;48.238;11.160;2023-05-19T11:54:48;14.50;99.90
5705;DHT22;2877;48.238;11.160;2023-05-19T11:57:13;14.60;99.90
5705;DHT22;2877;48.238;11.160;2023-05-19T11:59:39;14.90;99.90
5705;DHT22;2877;48.238;11.160;2023-05-19T12:02:24;15.20;99.90
5705;DHT22;2877;48.238;11.160;2023-05-19T12:04:52;15.30;99.90
5705;DHT22;2877;48.238;11.160;2023-05-19T12:07:19;15.50;99.90
5705;DHT22;2877;48.238;11.160;2023-05-19T12:09:45;15.50;99.90
5705;DHT22;2877;48.238;11.160;2023-05-19T12:12:18;15.50;99.90
5705;DHT22;2877;48.238;11.160;2023-05-19T12:14:49;15.70;99.90
5705;DHT22;2877;48.238;11.160;2023-05-19T12:17:17;15.80;99.90
5705;DHT22;2877;48.238;11.160;2023-05-19T12:19:48;16.20;99.90
5705;DHT22;2877;48.238;11.160;2023-05-19T12:22:16;16.40;99.90
5705;DHT22;2877;48.238;11.160;2023-05-19T12:24:42;16.50;99.90
5705;DHT22;2877;48.238;11.160;2023-05-19T12:27:27;16.40;99.90
5705;DHT22;2877;48.238;11.160;2023-05-19T12:29:54;16.10;99.90
5705;DHT22;2877;48.238;11.160;2023-05-19T12:32:25;15.70;99.90
5705;DHT22;2877;48.238;11.160;2023-05-19T12:34:52;15.50;99.90
5705;DHT22;2877;48.238;11.160;2023-05-19T12:37:17;15.80;99.90
5705;DHT22;2877;48.238;11.160;2023-05-19T12:39:44;16.10;99.90
5705;DHT22;2877;48.238;11.160;2023-05-19T12:42:10;16.40;99.90
5705;DHT22;2877;48.238;11.160;2023-05-19T12:44:50;16.40;99.90
5705;DHT22;2877;48.238;11.160;2023-05-19T12:47:18;16.30;99.90
5705;DHT22;2877;48.238;11.160;2023-05-19T12:52:19;16.80;99.80
5705;DHT22;2877;48.238;11.160;2023-05-19T12:54:48;17.20;99.60
5705;DHT22;2877;48.238;11.160;2023-05-19T12:57:15;17.60;98.80
5705;DHT22;2877;48.238;11.160;2023-05-19T12:59:41;17.60;97.50
5705;DHT22;2877;48.238;11.160;2023-05-19T13:02:07;17.30;97.60
5705;DHT22;2877;48.238;11.160;2023-05-19T13:04:33;17.00;97.80
5705;DHT22;2877;48.238;11.160;2023-05-19T13:06:58;17.10;98.10
5705;DHT22;2877;48.238;11.160;2023-05-19T13:09:24;17.00;98.10
5705;DHT22;2877;48.238;11.160;2023-05-19T13:11:50;17.30;97.90
5705;DHT22;2877;48.238;11.160;2023-05-19T13:14:17;17.20;98.00
5705;DHT22;2877;48.238;11.160;2023-05-19T13:16:45;16.70;98.30
5705;DHT22;2877;48.238;11.160;2023-05-19T13:19:16;16.60;98.70
5705;DHT22;2877;48.238;11.160;2023-05-19T13:21:42;16.80;99.00
5705;DHT22;2877;48.238;11.160;2023-05-19T13:24:07;17.10;97.90
5705;DHT22;2877;48.238;11.160;2023-05-19T13:26:33;17.10;98.40
5705;DHT22;2877;48.238;11.160;2023-05-19T13:28:59;17.10;98.70
5705;DHT22;2877;48.238;11.160;2023-05-19T13:31:26;17.50;98.30
5705;DHT22;2877;48.238;11.160;2023-05-19T13:33:52;17.80;97.20
5705;DHT22;2877;48.238;11.160;2023-05-19T13:36:17;17.80;96.10
5705;DHT22;2877;48.238;11.160;2023-05-19T13:38:43;18.30;95.60
5705;DHT22;2877;48.238;11.160;2023-05-19T13:41:08;19.00;94.70
5705;DHT22;2877;48.238;11.160;2023-05-19T13:43:34;19.60;93.10
5705;DHT22;2877;48.238;11.160;2023-05-19T13:45:59;20.20;92.20
5705;DHT22;2877;48.238;11.160;2023-05-19T13:48:25;20.60;90.80
5705;DHT22;2877;48.238;11.160;2023-05-19T13:50:50;20.60;87.90
5705;DHT22;2877;48.238;11.160;2023-05-19T13:53:18;20.60;87.10
5705;DHT22;2877;48.238;11.160;2023-05-19T13:55:44;19.90;86.90
5705;DHT22;2877;48.238;11.160;2023-05-19T13:58:09;19.50;89.10
5705;DHT22;2877;48.238;11.160;2023-05-19T14:00:35;19.30;90.10
5705;DHT22;2877;48.238;11.160;2023-05-19T14:03:01;19.50;91.00
5705;DHT22;2877;48.238;11.160;2023-05-19T14:05:27;19.60;89.30
5705;DHT22;2877;48.238;11.160;2023-05-19T14:07:53;19.70;89.40
5705;DHT22;2877;48.238;11.160;2023-05-19T14:10:19;19.90;88.80
5705;DHT22;2877;48.238;11.160;2023-05-19T14:12:45;20.40;88.20
5705;DHT22;2877;48.238;11.160;2023-05-19T14:15:10;20.90;85.60
5705;DHT22;2877;48.238;11.160;2023-05-19T14:17:36;21.40;84.80
5705;DHT22;2877;48.238;11.160;2023-05-19T14:20:02;21.30;83.70
5705;DHT22;2877;48.238;11.160;2023-05-19T14:22:28;21.40;84.40
5705;DHT22;2877;48.238;11.160;2023-05-19T14:24:54;21.50;83.10
5705;DHT22;2877;48.238;11.160;2023-05-19T14:27:19;21.70;83.00
5705;DHT22;2877;48.238;11.160;2023-05-19T14:29:45;21.80;82.60
5705;DHT22;2877;48.238;11.160;2023-05-19T14:32:10;21.50;82.20
5705;DHT22;2877;48.238;11.160;2023-05-19T14:34:36;21.30;80.70
5705;DHT22;2877;48.238;11.160;2023-05-19T14:37:01;21.00;81.90
5705;DHT22;2877;48.238;11.160;2023-05-19T14:39:28;21.00;83.30
5705;DHT22;2877;48.238;11.160;2023-05-19T14:41:54;21.30;81.60
5705;DHT22;2877;48.238;11.160;2023-05-19T14:44:20;21.70;82.20
5705;DHT22;2877;48.238;11.160;2023-05-19T14:46:46;21.90;79.90
5705;DHT22;2877;48.238;11.160;2023-05-19T14:49:11;21.50;80.90
5705;DHT22;2877;48.238;11.160;2023-05-19T14:51:37;21.20;82.40
5705;DHT22;2877;48.238;11.160;2023-05-19T14:54:02;20.80;83.30
5705;DHT22;2877;48.238;11.160;2023-05-19T14:56:28;20.30;84.90
5705;DHT22;2877;48.238;11.160;2023-05-19T14:58:53;19.70;86.40
5705;DHT22;2877;48.238;11.160;2023-05-19T15:01:19;19.10;86.50
5705;DHT22;2877;48.238;11.160;2023-05-19T15:03:44;18.60;87.90
5705;DHT22;2877;48.238;11.160;2023-05-19T15:06:10;18.20;90.00
5705;DHT22;2877;48.238;11.160;2023-05-19T15:08:36;18.00;91.30
5705;DHT22;2877;48.238;11.160;2023-05-19T15:11:05;17.80;91.00
5705;DHT22;2877;48.238;11.160;2023-05-19T15:13:31;17.60;91.80
5705;DHT22;2877;48.238;11.160;2023-05-19T15:15:56;17.50;92.70
5705;DHT22;2877;48.238;11.160;2023-05-19T15:18:22;17.30;93.30
5705;DHT22;2877;48.238;11.160;2023-05-19T15:20:47;17.30;93.60
5705;DHT22;2877;48.238;11.160;2023-05-19T15:23:13;17.40;93.30
5705;DHT22;2877;48.238;11.160;2023-05-19T15:25:39;17.20;93.60
5705;DHT22;2877;48.238;11.160;2023-05-19T15:28:05;17.10;93.90
5705;DHT22;2877;48.238;11.160;2023-05-19T15:30:30;17.10;94.10
5705;DHT22;2877;48.238;11.160;2023-05-19T15:32:56;17.10;95.30
5705;DHT22;2877;48.238;11.160;2023-05-19T15:35:21;17.20;94.90
5705;DHT22;2877;48.238;11.160;2023-05-19T15:37:47;17.10;94.60
5705;DHT22;2877;48.238;11.160;2023-05-19T15:40:12;16.90;94.50
5705;DHT22;2877;48.238;11.160;2023-05-19T15:42:38;16.70;95.60
5705;DHT22;2877;48.238;11.160;2023-05-19T15:45:04;16.70;96.00
5705;DHT22;2877;48.238;11.160;2023-05-19T15:47:30;16.70;96.10
5705;DHT22;2877;48.238;11.160;2023-05-19T15:49:55;17.00;95.40
5705;DHT22;2877;48.238;11.160;2023-05-19T15:52:21;17.50;95.70
5705;DHT22;2877;48.238;11.160;2023-05-19T15:54:47;18.00;95.40
5705;DHT22;2877;48.238;11.160;2023-05-19T15:57:13;18.30;93.90
5705;DHT22;2877;48.238;11.160;2023-05-19T15:59:38;18.40;93.90
5705;DHT22;2877;48.238;11.160;2023-05-19T16:02:04;18.20;93.70
5705;DHT22;2877;48.238;11.160;2023-05-19T16:04:29;17.90;94.10
5705;DHT22;2877;48.238;11.160;2023-05-19T16:06:55;17.60;94.10
5705;DHT22;2877;48.238;11.160;2023-05-19T16:09:21;17.40;94.90
5705;DHT22;2877;48.238;11.160;2023-05-19T16:11:46;17.30;95.00
5705;DHT22;2877;48.238;11.160;2023-05-19T16:14:12;17.20;95.00
5705;DHT22;2877;48.238;11.160;2023-05-19T16:16:37;17.30;95.50
5705;DHT22;2877;48.238;11.160;2023-05-19T16:19:03;17.40;95.00
5705;DHT22;2877;48.238;11.160;2023-05-19T16:21:28;17.80;94.80